sensor_id;sensor_type;location;lat;lon;timestamp;P1;durP1;ratioP1;P2;durP2;ratioP2
21215;SDS011;10765;50.954;5.322;2022-09-09T00:00:17;3.33;;;1.33;;
21215;SDS011;10765;50.954;5.322;2022-09-09T00:02:46;2.53;;;1.10;;
21215;SDS011;10765;50.954;5.322;2022-09-09T00:05:23;2.07;;;1.40;;
21215;SDS011;10765;50.954;5.322;2022-09-09T00:07:58;6.07;;;1.50;;
21215;SDS011;10765;50.954;5.322;2022-09-09T00:10:29;2.27;;;1.27;;
21215;SDS011;10765;50.954;5.322;2022-09-09T00:13:00;2.23;;;1.40;;
21215;SDS011;10765;50.954;5.322;2022-09-09T00:15:33;3.83;;;1.50;;
21215;SDS011;10765;50.954;5.322;2022-09-09T00:18:09;4.17;;;1.57;;
21215;SDS011;10765;50.954;5.322;2022-09-09T00:20:45;3.50;;;1.50;;
21215;SDS011;10765;50.954;5.322;2022-09-09T00:23:20;3.47;;;1.50;;
21215;SDS011;10765;50.954;5.322;2022-09-09T00:25:54;4.00;;;1.50;;
21215;SDS011;10765;50.954;5.322;2022-09-09T00:28:30;3.93;;;1.70;;
21215;SDS011;10765;50.954;5.322;2022-09-09T00:31:07;3.37;;;1.57;;
21215;SDS011;10765;50.954;5.322;2022-09-09T00:33:38;3.87;;;1.50;;
21215;SDS011;10765;50.954;5.322;2022-09-09T00:36:09;6.77;;;1.80;;
21215;SDS011;10765;50.954;5.322;2022-09-09T00:38:42;3.70;;;1.70;;
21215;SDS011;10765;50.954;5.322;2022-09-09T00:41:13;4.30;;;1.40;;
21215;SDS011;10765;50.954;5.322;2022-09-09T00:43:47;2.17;;;1.10;;
21215;SDS011;10765;50.954;5.322;2022-09-09T00:46:43;3.77;;;1.60;;
21215;SDS011;10765;50.954;5.322;2022-09-09T00:49:24;1.77;;;1.30;;
21215;SDS011;10765;50.954;5.322;2022-09-09T00:52:06;5.43;;;1.40;;
21215;SDS011;10765;50.954;5.322;2022-09-09T00:54:45;2.57;;;1.30;;
21215;SDS011;10765;50.954;5.322;2022-09-09T00:57:25;4.80;;;1.60;;
21215;SDS011;10765;50.954;5.322;2022-09-09T00:59:56;5.50;;;1.60;;
21215;SDS011;10765;50.954;5.322;2022-09-09T01:02:31;5.23;;;1.40;;
21215;SDS011;10765;50.954;5.322;2022-09-09T01:05:05;5.33;;;1.97;;
21215;SDS011;10765;50.954;5.322;2022-09-09T01:07:39;3.90;;;1.80;;
21215;SDS011;10765;50.954;5.322;2022-09-09T01:10:13;4.83;;;1.80;;
21215;SDS011;10765;50.954;5.322;2022-09-09T01:12:47;8.60;;;2.30;;
21215;SDS011;10765;50.954;5.322;2022-09-09T01:15:19;4.07;;;2.17;;
21215;SDS011;10765;50.954;5.322;2022-09-09T01:17:52;4.43;;;2.00;;
21215;SDS011;10765;50.954;5.322;2022-09-09T01:20:24;6.07;;;2.30;;
21215;SDS011;10765;50.954;5.322;2022-09-09T01:26:07;6.10;;;2.17;;
21215;SDS011;10765;50.954;5.322;2022-09-09T01:28:39;5.03;;;2.57;;
21215;SDS011;10765;50.954;5.322;2022-09-09T01:31:09;6.27;;;2.23;;
21215;SDS011;10765;50.954;5.322;2022-09-09T01:33:40;5.40;;;2.60;;
21215;SDS011;10765;50.954;5.322;2022-09-09T01:36:08;5.43;;;2.20;;
21215;SDS011;10765;50.954;5.322;2022-09-09T01:38:39;6.50;;;2.50;;
21215;SDS011;10765;50.954;5.322;2022-09-09T01:41:08;5.47;;;2.40;;
21215;SDS011;10765;50.954;5.322;2022-09-09T01:43:34;3.97;;;1.90;;
21215;SDS011;10765;50.954;5.322;2022-09-09T01:46:02;4.33;;;2.03;;
21215;SDS011;10765;50.954;5.322;2022-09-09T01:48:29;4.93;;;2.30;;
21215;SDS011;10765;50.954;5.322;2022-09-09T01:50:56;6.10;;;2.10;;
21215;SDS011;10765;50.954;5.322;2022-09-09T01:53:23;5.67;;;2.43;;
21215;SDS011;10765;50.954;5.322;2022-09-09T01:55:53;7.07;;;2.13;;
21215;SDS011;10765;50.954;5.322;2022-09-09T01:58:31;4.57;;;2.03;;
21215;SDS011;10765;50.954;5.322;2022-09-09T02:01:06;5.17;;;2.10;;
21215;SDS011;10765;50.954;5.322;2022-09-09T02:03:40;8.30;;;2.10;;
21215;SDS011;10765;50.954;5.322;2022-09-09T02:06:14;5.07;;;2.20;;
21215;SDS011;10765;50.954;5.322;2022-09-09T02:08:50;6.63;;;2.30;;
21215;SDS011;10765;50.954;5.322;2022-09-09T02:11:21;5.63;;;2.63;;
21215;SDS011;10765;50.954;5.322;2022-09-09T02:13:51;6.90;;;2.70;;
21215;SDS011;10765;50.954;5.322;2022-09-09T02:16:23;3.77;;;2.60;;
21215;SDS011;10765;50.954;5.322;2022-09-09T02:18:55;6.37;;;2.73;;
21215;SDS011;10765;50.954;5.322;2022-09-09T02:21:26;4.90;;;2.00;;
21215;SDS011;10765;50.954;5.322;2022-09-09T02:23:55;8.27;;;2.33;;
21215;SDS011;10765;50.954;5.322;2022-09-09T02:26:24;6.50;;;2.40;;
21215;SDS011;10765;50.954;5.322;2022-09-09T02:28:54;4.43;;;2.23;;
21215;SDS011;10765;50.954;5.322;2022-09-09T02:31:24;5.47;;;2.50;;
21215;SDS011;10765;50.954;5.322;2022-09-09T02:33:52;5.63;;;2.17;;
21215;SDS011;10765;50.954;5.322;2022-09-09T02:36:23;5.33;;;2.87;;
21215;SDS011;10765;50.954;5.322;2022-09-09T02:38:52;5.70;;;2.37;;
21215;SDS011;10765;50.954;5.322;2022-09-09T02:41:22;6.43;;;2.90;;
21215;SDS011;10765;50.954;5.322;2022-09-09T02:43:55;7.47;;;2.67;;
21215;SDS011;10765;50.954;5.322;2022-09-09T02:46:24;6.50;;;2.53;;
21215;SDS011;10765;50.954;5.322;2022-09-09T02:49:03;8.73;;;2.77;;
21215;SDS011;10765;50.954;5.322;2022-09-09T02:51:35;4.27;;;2.40;;
21215;SDS011;10765;50.954;5.322;2022-09-09T02:54:09;6.20;;;3.00;;
21215;SDS011;10765;50.954;5.322;2022-09-09T02:56:49;4.80;;;2.50;;
21215;SDS011;10765;50.954;5.322;2022-09-09T02:59:20;6.67;;;2.63;;
21215;SDS011;10765;50.954;5.322;2022-09-09T03:01:48;5.90;;;2.50;;
21215;SDS011;10765;50.954;5.322;2022-09-09T03:04:15;7.90;;;2.27;;
21215;SDS011;10765;50.954;5.322;2022-09-09T03:06:42;6.40;;;2.50;;
21215;SDS011;10765;50.954;5.322;2022-09-09T03:09:09;5.80;;;2.50;;
21215;SDS011;10765;50.954;5.322;2022-09-09T03:11:36;4.30;;;2.23;;
21215;SDS011;10765;50.954;5.322;2022-09-09T03:14:03;7.30;;;2.80;;
21215;SDS011;10765;50.954;5.322;2022-09-09T03:16:32;5.60;;;2.37;;
21215;SDS011;10765;50.954;5.322;2022-09-09T03:18:59;7.83;;;2.30;;
21215;SDS011;10765;50.954;5.322;2022-09-09T03:21:26;4.53;;;2.20;;
21215;SDS011;10765;50.954;5.322;2022-09-09T03:23:53;8.00;;;2.50;;
21215;SDS011;10765;50.954;5.322;2022-09-09T03:26:20;6.97;;;2.53;;
21215;SDS011;10765;50.954;5.322;2022-09-09T03:28:48;8.80;;;2.67;;
21215;SDS011;10765;50.954;5.322;2022-09-09T03:31:17;5.87;;;2.03;;
21215;SDS011;10765;50.954;5.322;2022-09-09T03:33:45;6.67;;;2.13;;
21215;SDS011;10765;50.954;5.322;2022-09-09T03:36:13;8.20;;;2.37;;
21215;SDS011;10765;50.954;5.322;2022-09-09T03:38:40;7.20;;;2.43;;
21215;SDS011;10765;50.954;5.322;2022-09-09T03:41:07;6.50;;;2.20;;
21215;SDS011;10765;50.954;5.322;2022-09-09T03:43:34;5.43;;;2.20;;
21215;SDS011;10765;50.954;5.322;2022-09-09T03:46:02;4.47;;;2.00;;
21215;SDS011;10765;50.954;5.322;2022-09-09T03:48:29;6.43;;;2.00;;
21215;SDS011;10765;50.954;5.322;2022-09-09T03:50:57;5.60;;;1.90;;
21215;SDS011;10765;50.954;5.322;2022-09-09T03:53:26;5.00;;;1.90;;
21215;SDS011;10765;50.954;5.322;2022-09-09T03:55:54;7.03;;;2.30;;
21215;SDS011;10765;50.954;5.322;2022-09-09T03:58:25;6.03;;;2.20;;
21215;SDS011;10765;50.954;5.322;2022-09-09T04:00:53;4.43;;;1.93;;
21215;SDS011;10765;50.954;5.322;2022-09-09T04:03:21;5.23;;;1.77;;
21215;SDS011;10765;50.954;5.322;2022-09-09T04:05:49;5.17;;;1.97;;
21215;SDS011;10765;50.954;5.322;2022-09-09T04:08:18;7.03;;;2.10;;
21215;SDS011;10765;50.954;5.322;2022-09-09T04:10:46;5.87;;;2.00;;
21215;SDS011;10765;50.954;5.322;2022-09-09T04:13:13;7.03;;;1.77;;
21215;SDS011;10765;50.954;5.322;2022-09-09T04:15:42;7.77;;;2.13;;
21215;SDS011;10765;50.954;5.322;2022-09-09T04:18:10;5.60;;;2.10;;
21215;SDS011;10765;50.954;5.322;2022-09-09T04:20:37;7.47;;;2.10;;
21215;SDS011;10765;50.954;5.322;2022-09-09T04:23:05;6.73;;;2.17;;
21215;SDS011;10765;50.954;5.322;2022-09-09T04:25:33;6.07;;;1.70;;
21215;SDS011;10765;50.954;5.322;2022-09-09T04:28:00;8.27;;;2.20;;
21215;SDS011;10765;50.954;5.322;2022-09-09T04:30:27;6.43;;;2.60;;
21215;SDS011;10765;50.954;5.322;2022-09-09T04:32:54;6.13;;;2.20;;
21215;SDS011;10765;50.954;5.322;2022-09-09T04:35:22;8.90;;;2.20;;
21215;SDS011;10765;50.954;5.322;2022-09-09T04:37:49;7.20;;;2.23;;
21215;SDS011;10765;50.954;5.322;2022-09-09T04:40:16;6.37;;;2.30;;
21215;SDS011;10765;50.954;5.322;2022-09-09T04:42:44;5.40;;;1.80;;
21215;SDS011;10765;50.954;5.322;2022-09-09T04:45:13;5.40;;;2.23;;
21215;SDS011;10765;50.954;5.322;2022-09-09T04:47:40;8.40;;;2.33;;
21215;SDS011;10765;50.954;5.322;2022-09-09T04:50:08;8.87;;;2.47;;
21215;SDS011;10765;50.954;5.322;2022-09-09T04:52:35;8.70;;;2.40;;
21215;SDS011;10765;50.954;5.322;2022-09-09T04:55:02;5.23;;;2.20;;
21215;SDS011;10765;50.954;5.322;2022-09-09T04:57:30;6.57;;;2.47;;
21215;SDS011;10765;50.954;5.322;2022-09-09T04:59:58;11.33;;;2.60;;
21215;SDS011;10765;50.954;5.322;2022-09-09T05:02:27;8.40;;;2.03;;
21215;SDS011;10765;50.954;5.322;2022-09-09T05:04:55;7.37;;;2.80;;
21215;SDS011;10765;50.954;5.322;2022-09-09T05:07:22;7.37;;;2.43;;
21215;SDS011;10765;50.954;5.322;2022-09-09T05:09:49;4.70;;;1.90;;
21215;SDS011;10765;50.954;5.322;2022-09-09T05:12:16;7.90;;;2.50;;
21215;SDS011;10765;50.954;5.322;2022-09-09T05:14:42;7.47;;;2.13;;
21215;SDS011;10765;50.954;5.322;2022-09-09T05:17:11;7.93;;;2.03;;
21215;SDS011;10765;50.954;5.322;2022-09-09T05:19:38;5.50;;;2.10;;
21215;SDS011;10765;50.954;5.322;2022-09-09T05:22:05;6.70;;;2.50;;
21215;SDS011;10765;50.954;5.322;2022-09-09T05:24:32;5.60;;;2.20;;
21215;SDS011;10765;50.954;5.322;2022-09-09T05:26:59;4.90;;;2.20;;
21215;SDS011;10765;50.954;5.322;2022-09-09T05:29:27;8.07;;;2.30;;
21215;SDS011;10765;50.954;5.322;2022-09-09T05:31:54;9.67;;;2.93;;
21215;SDS011;10765;50.954;5.322;2022-09-09T05:34:22;7.53;;;2.13;;
21215;SDS011;10765;50.954;5.322;2022-09-09T05:36:49;9.03;;;2.33;;
21215;SDS011;10765;50.954;5.322;2022-09-09T05:39:17;7.97;;;2.50;;
21215;SDS011;10765;50.954;5.322;2022-09-09T05:41:44;7.53;;;1.83;;
21215;SDS011;10765;50.954;5.322;2022-09-09T05:44:10;8.03;;;2.10;;
21215;SDS011;10765;50.954;5.322;2022-09-09T05:46:38;7.90;;;2.13;;
21215;SDS011;10765;50.954;5.322;2022-09-09T05:49:05;7.93;;;2.23;;
21215;SDS011;10765;50.954;5.322;2022-09-09T05:51:34;8.23;;;2.23;;
21215;SDS011;10765;50.954;5.322;2022-09-09T05:54:01;8.47;;;2.00;;
21215;SDS011;10765;50.954;5.322;2022-09-09T05:56:28;7.63;;;2.50;;
21215;SDS011;10765;50.954;5.322;2022-09-09T05:58:57;6.40;;;2.20;;
21215;SDS011;10765;50.954;5.322;2022-09-09T06:01:26;7.73;;;2.20;;
21215;SDS011;10765;50.954;5.322;2022-09-09T06:03:55;7.77;;;2.40;;
21215;SDS011;10765;50.954;5.322;2022-09-09T06:06:23;8.03;;;2.27;;
21215;SDS011;10765;50.954;5.322;2022-09-09T06:08:53;6.00;;;2.17;;
21215;SDS011;10765;50.954;5.322;2022-09-09T06:11:23;10.00;;;2.43;;
21215;SDS011;10765;50.954;5.322;2022-09-09T06:13:51;11.07;;;2.50;;
21215;SDS011;10765;50.954;5.322;2022-09-09T06:16:20;6.53;;;2.13;;
21215;SDS011;10765;50.954;5.322;2022-09-09T06:18:49;5.93;;;2.20;;
21215;SDS011;10765;50.954;5.322;2022-09-09T06:21:17;8.30;;;2.50;;
21215;SDS011;10765;50.954;5.322;2022-09-09T06:23:45;5.97;;;2.20;;
21215;SDS011;10765;50.954;5.322;2022-09-09T06:26:15;7.57;;;2.30;;
21215;SDS011;10765;50.954;5.322;2022-09-09T06:28:43;7.93;;;2.10;;
21215;SDS011;10765;50.954;5.322;2022-09-09T06:31:13;9.73;;;2.27;;
21215;SDS011;10765;50.954;5.322;2022-09-09T06:33:42;5.33;;;1.90;;
21215;SDS011;10765;50.954;5.322;2022-09-09T06:36:10;4.10;;;1.73;;
21215;SDS011;10765;50.954;5.322;2022-09-09T06:38:39;8.10;;;1.83;;
21215;SDS011;10765;50.954;5.322;2022-09-09T06:41:07;6.30;;;1.97;;
21215;SDS011;10765;50.954;5.322;2022-09-09T06:43:36;7.17;;;1.97;;
21215;SDS011;10765;50.954;5.322;2022-09-09T06:46:04;6.33;;;1.70;;
21215;SDS011;10765;50.954;5.322;2022-09-09T06:48:33;4.17;;;1.50;;
21215;SDS011;10765;50.954;5.322;2022-09-09T06:51:01;4.40;;;1.57;;
21215;SDS011;10765;50.954;5.322;2022-09-09T06:53:29;5.60;;;1.20;;
21215;SDS011;10765;50.954;5.322;2022-09-09T06:55:58;7.30;;;2.13;;
21215;SDS011;10765;50.954;5.322;2022-09-09T06:58:26;6.27;;;2.00;;
21215;SDS011;10765;50.954;5.322;2022-09-09T07:00:54;6.23;;;1.70;;
21215;SDS011;10765;50.954;5.322;2022-09-09T07:03:28;6.93;;;1.70;;
21215;SDS011;10765;50.954;5.322;2022-09-09T07:05:55;6.60;;;1.90;;
21215;SDS011;10765;50.954;5.322;2022-09-09T07:08:22;4.47;;;1.70;;
21215;SDS011;10765;50.954;5.322;2022-09-09T07:10:50;5.80;;;1.80;;
21215;SDS011;10765;50.954;5.322;2022-09-09T07:13:18;7.83;;;2.10;;
21215;SDS011;10765;50.954;5.322;2022-09-09T07:15:49;6.90;;;2.13;;
21215;SDS011;10765;50.954;5.322;2022-09-09T07:18:17;6.07;;;1.70;;
21215;SDS011;10765;50.954;5.322;2022-09-09T07:20:52;6.03;;;2.10;;
21215;SDS011;10765;50.954;5.322;2022-09-09T07:23:20;6.30;;;1.97;;
21215;SDS011;10765;50.954;5.322;2022-09-09T07:25:47;6.70;;;1.80;;
21215;SDS011;10765;50.954;5.322;2022-09-09T07:28:15;7.80;;;1.60;;
21215;SDS011;10765;50.954;5.322;2022-09-09T07:30:42;4.13;;;1.20;;
21215;SDS011;10765;50.954;5.322;2022-09-09T07:33:09;5.73;;;1.60;;
21215;SDS011;10765;50.954;5.322;2022-09-09T07:35:37;9.23;;;2.10;;
21215;SDS011;10765;50.954;5.322;2022-09-09T07:38:04;8.97;;;1.80;;
21215;SDS011;10765;50.954;5.322;2022-09-09T07:40:31;8.37;;;1.60;;
21215;SDS011;10765;50.954;5.322;2022-09-09T07:42:59;3.53;;;1.50;;
21215;SDS011;10765;50.954;5.322;2022-09-09T07:45:26;6.33;;;1.73;;
21215;SDS011;10765;50.954;5.322;2022-09-09T07:47:54;5.80;;;1.87;;
21215;SDS011;10765;50.954;5.322;2022-09-09T07:50:22;6.90;;;1.63;;
21215;SDS011;10765;50.954;5.322;2022-09-09T07:52:50;6.17;;;1.70;;
21215;SDS011;10765;50.954;5.322;2022-09-09T07:55:18;5.73;;;1.57;;
21215;SDS011;10765;50.954;5.322;2022-09-09T07:57:45;6.97;;;2.30;;
21215;SDS011;10765;50.954;5.322;2022-09-09T08:00:12;7.23;;;1.87;;
21215;SDS011;10765;50.954;5.322;2022-09-09T08:02:40;8.57;;;2.00;;
21215;SDS011;10765;50.954;5.322;2022-09-09T08:05:07;5.67;;;1.70;;
21215;SDS011;10765;50.954;5.322;2022-09-09T08:07:34;7.00;;;1.80;;
21215;SDS011;10765;50.954;5.322;2022-09-09T08:10:03;7.43;;;1.90;;
21215;SDS011;10765;50.954;5.322;2022-09-09T08:12:31;6.33;;;1.80;;
21215;SDS011;10765;50.954;5.322;2022-09-09T08:14:58;5.23;;;1.70;;
21215;SDS011;10765;50.954;5.322;2022-09-09T08:17:25;3.80;;;1.53;;
21215;SDS011;10765;50.954;5.322;2022-09-09T08:19:51;5.70;;;1.80;;
21215;SDS011;10765;50.954;5.322;2022-09-09T08:22:19;4.73;;;1.63;;
21215;SDS011;10765;50.954;5.322;2022-09-09T08:24:47;7.53;;;1.53;;
21215;SDS011;10765;50.954;5.322;2022-09-09T08:27:15;5.73;;;1.60;;
21215;SDS011;10765;50.954;5.322;2022-09-09T08:29:42;6.67;;;1.70;;
21215;SDS011;10765;50.954;5.322;2022-09-09T08:32:09;7.40;;;1.97;;
21215;SDS011;10765;50.954;5.322;2022-09-09T08:34:36;7.50;;;1.70;;
21215;SDS011;10765;50.954;5.322;2022-09-09T08:37:03;9.00;;;1.77;;
21215;SDS011;10765;50.954;5.322;2022-09-09T08:39:30;5.03;;;1.70;;
21215;SDS011;10765;50.954;5.322;2022-09-09T08:42:05;5.40;;;1.60;;
21215;SDS011;10765;50.954;5.322;2022-09-09T08:44:48;5.03;;;1.73;;
21215;SDS011;10765;50.954;5.322;2022-09-09T08:47:30;5.47;;;2.07;;
21215;SDS011;10765;50.954;5.322;2022-09-09T08:50:11;6.60;;;2.00;;
21215;SDS011;10765;50.954;5.322;2022-09-09T08:52:47;6.30;;;1.70;;
21215;SDS011;10765;50.954;5.322;2022-09-09T08:55:21;6.30;;;1.87;;
21215;SDS011;10765;50.954;5.322;2022-09-09T08:57:55;5.57;;;1.90;;
21215;SDS011;10765;50.954;5.322;2022-09-09T09:00:27;6.87;;;1.97;;
21215;SDS011;10765;50.954;5.322;2022-09-09T09:03:01;6.70;;;1.90;;
21215;SDS011;10765;50.954;5.322;2022-09-09T09:05:36;5.30;;;1.50;;
21215;SDS011;10765;50.954;5.322;2022-09-09T09:08:12;8.17;;;1.60;;
21215;SDS011;10765;50.954;5.322;2022-09-09T09:10:47;8.13;;;1.93;;
21215;SDS011;10765;50.954;5.322;2022-09-09T09:13:18;5.60;;;1.80;;
21215;SDS011;10765;50.954;5.322;2022-09-09T09:15:48;4.07;;;1.60;;
21215;SDS011;10765;50.954;5.322;2022-09-09T09:18:20;6.70;;;2.00;;
21215;SDS011;10765;50.954;5.322;2022-09-09T09:20:58;7.90;;;2.20;;
21215;SDS011;10765;50.954;5.322;2022-09-09T09:23:32;6.10;;;1.70;;
21215;SDS011;10765;50.954;5.322;2022-09-09T09:26:06;5.23;;;1.83;;
21215;SDS011;10765;50.954;5.322;2022-09-09T09:28:37;5.90;;;1.70;;
21215;SDS011;10765;50.954;5.322;2022-09-09T09:31:06;4.20;;;1.17;;
21215;SDS011;10765;50.954;5.322;2022-09-09T09:33:44;6.87;;;1.40;;
21215;SDS011;10765;50.954;5.322;2022-09-09T09:36:14;3.47;;;1.10;;
21215;SDS011;10765;50.954;5.322;2022-09-09T09:38:51;4.93;;;1.30;;
21215;SDS011;10765;50.954;5.322;2022-09-09T09:41:30;3.30;;;1.40;;
21215;SDS011;10765;50.954;5.322;2022-09-09T09:44:00;5.40;;;1.40;;
21215;SDS011;10765;50.954;5.322;2022-09-09T09:46:29;5.03;;;1.50;;
21215;SDS011;10765;50.954;5.322;2022-09-09T09:48:57;4.07;;;1.07;;
21215;SDS011;10765;50.954;5.322;2022-09-09T09:51:25;4.07;;;1.20;;
21215;SDS011;10765;50.954;5.322;2022-09-09T09:53:53;4.80;;;1.70;;
21215;SDS011;10765;50.954;5.322;2022-09-09T09:56:30;1.87;;;0.97;;
21215;SDS011;10765;50.954;5.322;2022-09-09T09:58:59;5.03;;;1.30;;
21215;SDS011;10765;50.954;5.322;2022-09-09T10:01:27;6.57;;;1.27;;
21215;SDS011;10765;50.954;5.322;2022-09-09T10:03:57;3.47;;;1.10;;
21215;SDS011;10765;50.954;5.322;2022-09-09T10:06:32;7.60;;;1.60;;
21215;SDS011;10765;50.954;5.322;2022-09-09T10:09:00;6.63;;;2.03;;
21215;SDS011;10765;50.954;5.322;2022-09-09T10:11:35;5.93;;;2.10;;
21215;SDS011;10765;50.954;5.322;2022-09-09T10:14:14;6.47;;;2.10;;
21215;SDS011;10765;50.954;5.322;2022-09-09T10:16:49;4.37;;;1.90;;
21215;SDS011;10765;50.954;5.322;2022-09-09T10:19:29;5.67;;;1.87;;
21215;SDS011;10765;50.954;5.322;2022-09-09T10:22:02;6.30;;;2.10;;
21215;SDS011;10765;50.954;5.322;2022-09-09T10:24:46;4.70;;;1.60;;
21215;SDS011;10765;50.954;5.322;2022-09-09T10:27:22;6.27;;;2.40;;
21215;SDS011;10765;50.954;5.322;2022-09-09T10:30:04;7.17;;;2.20;;
21215;SDS011;10765;50.954;5.322;2022-09-09T10:32:37;6.97;;;2.30;;
21215;SDS011;10765;50.954;5.322;2022-09-09T10:35:14;8.07;;;2.60;;
21215;SDS011;10765;50.954;5.322;2022-09-09T10:37:54;9.13;;;2.90;;
21215;SDS011;10765;50.954;5.322;2022-09-09T10:40:43;6.77;;;2.73;;
21215;SDS011;10765;50.954;5.322;2022-09-09T10:43:34;7.83;;;2.70;;
21215;SDS011;10765;50.954;5.322;2022-09-09T10:46:26;8.97;;;3.03;;
21215;SDS011;10765;50.954;5.322;2022-09-09T10:49:03;8.63;;;3.07;;
21215;SDS011;10765;50.954;5.322;2022-09-09T10:51:43;5.40;;;3.00;;
21215;SDS011;10765;50.954;5.322;2022-09-09T10:54:25;5.87;;;2.97;;
21215;SDS011;10765;50.954;5.322;2022-09-09T10:57:03;6.73;;;3.13;;
21215;SDS011;10765;50.954;5.322;2022-09-09T10:59:36;6.97;;;2.43;;
21215;SDS011;10765;50.954;5.322;2022-09-09T11:02:11;6.03;;;2.60;;
21215;SDS011;10765;50.954;5.322;2022-09-09T11:04:42;6.77;;;2.70;;
21215;SDS011;10765;50.954;5.322;2022-09-09T11:07:16;7.17;;;2.67;;
21215;SDS011;10765;50.954;5.322;2022-09-09T11:09:52;6.50;;;2.27;;
21215;SDS011;10765;50.954;5.322;2022-09-09T11:12:25;5.73;;;2.17;;
21215;SDS011;10765;50.954;5.322;2022-09-09T11:14:54;6.03;;;2.30;;
21215;SDS011;10765;50.954;5.322;2022-09-09T11:17:32;5.70;;;2.50;;
21215;SDS011;10765;50.954;5.322;2022-09-09T11:20:05;7.97;;;2.70;;
21215;SDS011;10765;50.954;5.322;2022-09-09T11:22:33;5.83;;;2.47;;
21215;SDS011;10765;50.954;5.322;2022-09-09T11:25:06;6.00;;;2.30;;
21215;SDS011;10765;50.954;5.322;2022-09-09T11:27:41;6.87;;;2.80;;
21215;SDS011;10765;50.954;5.322;2022-09-09T11:30:21;7.03;;;2.27;;
21215;SDS011;10765;50.954;5.322;2022-09-09T11:32:59;4.17;;;2.13;;
21215;SDS011;10765;50.954;5.322;2022-09-09T11:35:52;3.97;;;1.80;;
21215;SDS011;10765;50.954;5.322;2022-09-09T11:38:27;5.27;;;2.07;;
21215;SDS011;10765;50.954;5.322;2022-09-09T11:40:57;5.27;;;2.00;;
21215;SDS011;10765;50.954;5.322;2022-09-09T11:43:27;4.90;;;1.83;;
21215;SDS011;10765;50.954;5.322;2022-09-09T11:45:58;3.70;;;1.93;;
21215;SDS011;10765;50.954;5.322;2022-09-09T11:48:31;5.50;;;2.07;;
21215;SDS011;10765;50.954;5.322;2022-09-09T11:51:02;5.53;;;1.90;;
21215;SDS011;10765;50.954;5.322;2022-09-09T11:53:32;6.37;;;1.90;;
21215;SDS011;10765;50.954;5.322;2022-09-09T11:56:07;5.73;;;1.80;;
21215;SDS011;10765;50.954;5.322;2022-09-09T11:58:41;5.30;;;1.83;;
21215;SDS011;10765;50.954;5.322;2022-09-09T12:04:14;3.97;;;1.90;;
21215;SDS011;10765;50.954;5.322;2022-09-09T12:06:48;6.03;;;1.77;;
21215;SDS011;10765;50.954;5.322;2022-09-09T12:09:20;3.50;;;1.50;;
21215;SDS011;10765;50.954;5.322;2022-09-09T12:11:51;4.10;;;2.00;;
21215;SDS011;10765;50.954;5.322;2022-09-09T12:14:22;6.23;;;2.00;;
21215;SDS011;10765;50.954;5.322;2022-09-09T12:17:09;5.57;;;1.90;;
21215;SDS011;10765;50.954;5.322;2022-09-09T12:19:44;6.53;;;1.53;;
21215;SDS011;10765;50.954;5.322;2022-09-09T12:22:15;5.97;;;1.77;;
21215;SDS011;10765;50.954;5.322;2022-09-09T12:24:51;4.00;;;1.80;;
21215;SDS011;10765;50.954;5.322;2022-09-09T12:27:23;5.57;;;1.90;;
21215;SDS011;10765;50.954;5.322;2022-09-09T12:29:58;5.97;;;2.20;;
21215;SDS011;10765;50.954;5.322;2022-09-09T12:32:28;4.67;;;1.80;;
21215;SDS011;10765;50.954;5.322;2022-09-09T12:35:00;5.40;;;1.60;;
21215;SDS011;10765;50.954;5.322;2022-09-09T12:37:32;2.60;;;1.47;;
21215;SDS011;10765;50.954;5.322;2022-09-09T12:40:02;4.37;;;1.97;;
21215;SDS011;10765;50.954;5.322;2022-09-09T12:42:30;6.47;;;2.43;;
21215;SDS011;10765;50.954;5.322;2022-09-09T12:44:59;2.57;;;1.60;;
21215;SDS011;10765;50.954;5.322;2022-09-09T12:47:34;4.33;;;1.83;;
21215;SDS011;10765;50.954;5.322;2022-09-09T12:50:11;6.67;;;2.07;;
21215;SDS011;10765;50.954;5.322;2022-09-09T12:52:42;3.87;;;1.70;;
21215;SDS011;10765;50.954;5.322;2022-09-09T12:55:15;5.10;;;2.00;;
21215;SDS011;10765;50.954;5.322;2022-09-09T12:57:46;4.27;;;1.70;;
21215;SDS011;10765;50.954;5.322;2022-09-09T13:00:16;4.20;;;1.57;;
21215;SDS011;10765;50.954;5.322;2022-09-09T13:02:46;2.77;;;1.40;;
21215;SDS011;10765;50.954;5.322;2022-09-09T13:05:18;3.83;;;1.30;;
21215;SDS011;10765;50.954;5.322;2022-09-09T13:07:47;4.40;;;1.40;;
21215;SDS011;10765;50.954;5.322;2022-09-09T13:10:14;4.83;;;1.40;;
21215;SDS011;10765;50.954;5.322;2022-09-09T13:12:47;4.87;;;1.53;;
21215;SDS011;10765;50.954;5.322;2022-09-09T13:15:16;3.50;;;1.57;;
21215;SDS011;10765;50.954;5.322;2022-09-09T13:17:54;3.43;;;1.40;;
21215;SDS011;10765;50.954;5.322;2022-09-09T13:20:24;4.27;;;1.60;;
21215;SDS011;10765;50.954;5.322;2022-09-09T13:22:51;5.10;;;1.60;;
21215;SDS011;10765;50.954;5.322;2022-09-09T13:25:22;5.23;;;1.27;;
21215;SDS011;10765;50.954;5.322;2022-09-09T13:27:53;4.03;;;1.43;;
21215;SDS011;10765;50.954;5.322;2022-09-09T13:30:23;3.10;;;1.60;;
21215;SDS011;10765;50.954;5.322;2022-09-09T13:33:05;4.30;;;1.37;;
21215;SDS011;10765;50.954;5.322;2022-09-09T13:35:48;3.47;;;1.73;;
21215;SDS011;10765;50.954;5.322;2022-09-09T13:38:16;2.73;;;1.70;;
21215;SDS011;10765;50.954;5.322;2022-09-09T13:40:56;6.37;;;2.23;;
21215;SDS011;10765;50.954;5.322;2022-09-09T13:43:27;6.37;;;1.83;;
21215;SDS011;10765;50.954;5.322;2022-09-09T13:45:55;4.07;;;1.50;;
21215;SDS011;10765;50.954;5.322;2022-09-09T13:48:23;4.43;;;1.53;;
21215;SDS011;10765;50.954;5.322;2022-09-09T13:50:56;5.37;;;1.30;;
21215;SDS011;10765;50.954;5.322;2022-09-09T13:53:23;3.33;;;1.70;;
21215;SDS011;10765;50.954;5.322;2022-09-09T13:55:51;3.37;;;1.47;;
21215;SDS011;10765;50.954;5.322;2022-09-09T13:58:18;3.07;;;0.93;;
21215;SDS011;10765;50.954;5.322;2022-09-09T14:00:46;4.13;;;1.20;;
21215;SDS011;10765;50.954;5.322;2022-09-09T14:03:14;4.03;;;1.27;;
21215;SDS011;10765;50.954;5.322;2022-09-09T14:05:41;5.47;;;1.43;;
21215;SDS011;10765;50.954;5.322;2022-09-09T14:08:13;4.20;;;1.20;;
21215;SDS011;10765;50.954;5.322;2022-09-09T14:10:46;3.60;;;1.10;;
21215;SDS011;10765;50.954;5.322;2022-09-09T14:13:13;3.97;;;1.40;;
21215;SDS011;10765;50.954;5.322;2022-09-09T14:15:40;4.70;;;1.67;;
21215;SDS011;10765;50.954;5.322;2022-09-09T14:18:08;3.50;;;1.30;;
21215;SDS011;10765;50.954;5.322;2022-09-09T14:20:38;4.17;;;1.90;;
21215;SDS011;10765;50.954;5.322;2022-09-09T14:23:05;5.90;;;1.33;;
21215;SDS011;10765;50.954;5.322;2022-09-09T14:25:33;5.37;;;1.63;;
21215;SDS011;10765;50.954;5.322;2022-09-09T14:28:00;2.80;;;1.30;;
21215;SDS011;10765;50.954;5.322;2022-09-09T14:30:28;3.67;;;1.40;;
21215;SDS011;10765;50.954;5.322;2022-09-09T14:32:54;3.73;;;1.30;;
21215;SDS011;10765;50.954;5.322;2022-09-09T14:35:21;3.80;;;1.57;;
21215;SDS011;10765;50.954;5.322;2022-09-09T14:37:48;3.13;;;1.30;;
21215;SDS011;10765;50.954;5.322;2022-09-09T14:40:15;1.60;;;1.00;;
21215;SDS011;10765;50.954;5.322;2022-09-09T14:42:44;3.53;;;1.10;;
21215;SDS011;10765;50.954;5.322;2022-09-09T14:45:11;2.93;;;1.20;;
21215;SDS011;10765;50.954;5.322;2022-09-09T14:47:38;2.23;;;0.93;;
21215;SDS011;10765;50.954;5.322;2022-09-09T14:50:05;2.53;;;1.00;;
21215;SDS011;10765;50.954;5.322;2022-09-09T14:52:33;3.83;;;1.07;;
21215;SDS011;10765;50.954;5.322;2022-09-09T14:55:00;2.77;;;1.27;;
21215;SDS011;10765;50.954;5.322;2022-09-09T14:57:27;3.60;;;1.10;;
21215;SDS011;10765;50.954;5.322;2022-09-09T14:59:55;3.60;;;1.17;;
21215;SDS011;10765;50.954;5.322;2022-09-09T15:02:22;5.20;;;1.07;;
21215;SDS011;10765;50.954;5.322;2022-09-09T15:04:49;2.33;;;0.93;;
21215;SDS011;10765;50.954;5.322;2022-09-09T15:07:17;1.70;;;1.07;;
21215;SDS011;10765;50.954;5.322;2022-09-09T15:09:44;1.90;;;0.93;;
21215;SDS011;10765;50.954;5.322;2022-09-09T15:12:12;4.10;;;1.00;;
21215;SDS011;10765;50.954;5.322;2022-09-09T15:14:40;2.43;;;1.13;;